sensor_id;sensor_type;location;lat;lon;timestamp;pressure;altitude;pressure_sealevel;temperature;humidity
76022;BME280;64718;52.124;6.226;2024-01-30T00:01:47;102704.09;;;4.96;100.00
76022;BME280;64718;52.124;6.226;2024-01-30T00:04:14;102693.94;;;5.10;100.00
76022;BME280;64718;52.124;6.226;2024-01-30T00:06:41;102697.41;;;5.15;100.00
76022;BME280;64718;52.124;6.226;2024-01-30T00:09:08;102696.59;;;5.19;100.00
76022;BME280;64718;52.124;6.226;2024-01-30T00:11:35;102694.81;;;5.14;100.00
76022;BME280;64718;52.124;6.226;2024-01-30T00:14:02;102698.38;;;5.23;100.00
76022;BME280;64718;52.124;6.226;2024-01-30T00:16:28;102698.50;;;5.35;100.00
76022;BME280;64718;52.124;6.226;2024-01-30T00:18:55;102701.03;;;5.32;100.00
76022;BME280;64718;52.124;6.226;2024-01-30T00:21:23;102699.28;;;5.28;100.00
76022;BME280;64718;52.124;6.226;2024-01-30T00:23:49;102697.50;;;5.21;100.00
76022;BME280;64718;52.124;6.226;2024-01-30T00:26:16;102690.50;;;5.13;100.00
76022;BME280;64718;52.124;6.226;2024-01-30T00:28:43;102694.00;;;5.19;100.00
76022;BME280;64718;52.124;6.226;2024-01-30T00:31:10;102688.91;;;5.21;100.00
76022;BME280;64718;52.124;6.226;2024-01-30T00:33:37;102691.41;;;5.18;100.00
76022;BME280;64718;52.124;6.226;2024-01-30T00:36:04;102693.94;;;5.10;100.00
76022;BME280;64718;52.124;6.226;2024-01-30T00:38:33;102696.38;;;4.96;100.00
76022;BME280;64718;52.124;6.226;2024-01-30T00:40:59;102700.53;;;4.84;100.00
76022;BME280;64718;52.124;6.226;2024-01-30T00:43:25;102698.66;;;4.70;100.00
76022;BME280;64718;52.124;6.226;2024-01-30T00:45:51;102697.53;;;4.50;100.00
76022;BME280;64718;52.124;6.226;2024-01-30T00:48:18;102696.47;;;4.33;100.00
76022;BME280;64718;52.124;6.226;2024-01-30T00:50:44;102697.16;;;4.21;100.00
76022;BME280;64718;52.124;6.226;2024-01-30T00:53:11;102696.25;;;4.16;100.00
76022;BME280;64718;52.124;6.226;2024-01-30T00:55:39;102692.75;;;4.11;100.00
76022;BME280;64718;52.124;6.226;2024-01-30T00:58:05;102689.97;;;4.00;100.00
76022;BME280;64718;52.124;6.226;2024-01-30T01:00:32;102698.44;;;3.92;100.00
76022;BME280;64718;52.124;6.226;2024-01-30T01:02:59;102695.72;;;3.81;100.00
76022;BME280;64718;52.124;6.226;2024-01-30T01:05:25;102696.38;;;3.68;100.00
76022;BME280;64718;52.124;6.226;2024-01-30T01:07:51;102688.56;;;3.62;100.00
76022;BME280;64718;52.124;6.226;2024-01-30T01:10:18;102683.28;;;3.54;100.00
76022;BME280;64718;52.124;6.226;2024-01-30T01:12:46;102691.88;;;3.56;100.00
76022;BME280;64718;52.124;6.226;2024-01-30T01:15:12;102695.41;;;3.61;100.00
76022;BME280;64718;52.124;6.226;2024-01-30T01:17:39;102696.91;;;3.48;100.00
76022;BME280;64718;52.124;6.226;2024-01-30T01:20:07;102697.69;;;3.46;100.00
76022;BME280;64718;52.124;6.226;2024-01-30T01:22:34;102694.25;;;3.45;100.00
76022;BME280;64718;52.124;6.226;2024-01-30T01:25:01;102703.63;;;3.42;100.00
76022;BME280;64718;52.124;6.226;2024-01-30T01:27:27;102696.72;;;3.39;100.00
76022;BME280;64718;52.124;6.226;2024-01-30T01:29:55;102693.38;;;3.43;100.00
76022;BME280;64718;52.124;6.226;2024-01-30T01:32:22;102688.59;;;3.65;100.00
76022;BME280;64718;52.124;6.226;2024-01-30T01:34:48;102685.31;;;3.75;100.00
76022;BME280;64718;52.124;6.226;2024-01-30T01:37:14;102694.88;;;3.82;100.00
76022;BME280;64718;52.124;6.226;2024-01-30T01:39:41;102690.63;;;3.86;100.00
76022;BME280;64718;52.124;6.226;2024-01-30T01:42:07;102685.63;;;3.96;100.00
76022;BME280;64718;52.124;6.226;2024-01-30T01:44:34;102689.38;;;4.17;100.00
76022;BME280;64718;52.124;6.226;2024-01-30T01:47:02;102677.41;;;4.20;100.00
76022;BME280;64718;52.124;6.226;2024-01-30T01:49:29;102679.84;;;4.09;100.00
76022;BME280;64718;52.124;6.226;2024-01-30T01:51:56;102683.25;;;4.08;100.00
76022;BME280;64718;52.124;6.226;2024-01-30T01:54:25;102677.28;;;4.09;100.00
76022;BME280;64718;52.124;6.226;2024-01-30T01:56:53;102681.50;;;4.06;100.00
76022;BME280;64718;52.124;6.226;2024-01-30T01:59:20;102677.06;;;3.97;100.00
76022;BME280;64718;52.124;6.226;2024-01-30T02:01:46;102681.25;;;3.89;100.00
76022;BME280;64718;52.124;6.226;2024-01-30T02:04:15;102674.22;;;3.79;100.00
76022;BME280;64718;52.124;6.226;2024-01-30T02:06:42;102672.47;;;3.75;100.00
76022;BME280;64718;52.124;6.226;2024-01-30T02:09:09;102672.63;;;3.86;100.00
76022;BME280;64718;52.124;6.226;2024-01-30T02:11:36;102674.44;;;3.94;100.00
76022;BME280;64718;52.124;6.226;2024-01-30T02:14:03;102664.19;;;3.96;100.00
76022;BME280;64718;52.124;6.226;2024-01-30T02:16:30;102668.66;;;4.07;100.00
76022;BME280;64718;52.124;6.226;2024-01-30T02:18:56;102666.00;;;4.04;100.00
76022;BME280;64718;52.124;6.226;2024-01-30T02:21:24;102660.94;;;4.09;100.00
76022;BME280;64718;52.124;6.226;2024-01-30T02:23:52;102657.59;;;4.15;100.00
76022;BME280;64718;52.124;6.226;2024-01-30T02:26:19;102653.50;;;4.30;100.00
76022;BME280;64718;52.124;6.226;2024-01-30T02:28:46;102646.66;;;4.32;100.00
76022;BME280;64718;52.124;6.226;2024-01-30T02:31:13;102640.75;;;4.41;100.00
76022;BME280;64718;52.124;6.226;2024-01-30T02:33:39;102646.72;;;4.38;100.00
76022;BME280;64718;52.124;6.226;2024-01-30T02:36:06;102638.97;;;4.37;100.00
76022;BME280;64718;52.124;6.226;2024-01-30T02:38:34;102638.94;;;4.32;100.00
76022;BME280;64718;52.124;6.226;2024-01-30T02:41:00;102636.38;;;4.34;100.00
76022;BME280;64718;52.124;6.226;2024-01-30T02:43:27;102645.09;;;4.45;100.00
76022;BME280;64718;52.124;6.226;2024-01-30T02:45:53;102639.19;;;4.54;100.00
76022;BME280;64718;52.124;6.226;2024-01-30T02:48:20;102638.28;;;4.52;100.00
76022;BME280;64718;52.124;6.226;2024-01-30T02:50:46;102639.97;;;4.47;100.00
76022;BME280;64718;52.124;6.226;2024-01-30T02:53:13;102635.59;;;4.41;100.00
76022;BME280;64718;52.124;6.226;2024-01-30T02:55:41;102633.94;;;4.46;100.00
76022;BME280;64718;52.124;6.226;2024-01-30T02:58:07;102633.84;;;4.37;100.00
76022;BME280;64718;52.124;6.226;2024-01-30T03:00:34;102636.28;;;4.26;100.00
76022;BME280;64718;52.124;6.226;2024-01-30T03:03:01;102628.41;;;4.14;100.00
76022;BME280;64718;52.124;6.226;2024-01-30T03:05:27;102623.94;;;4.04;100.00
76022;BME280;64718;52.124;6.226;2024-01-30T03:07:54;102622.94;;;3.91;100.00
76022;BME280;64718;52.124;6.226;2024-01-30T03:10:20;102624.50;;;3.80;100.00
76022;BME280;64718;52.124;6.226;2024-01-30T03:12:48;102619.31;;;3.77;100.00
76022;BME280;64718;52.124;6.226;2024-01-30T03:15:15;102614.31;;;3.88;100.00
76022;BME280;64718;52.124;6.226;2024-01-30T03:17:41;102614.41;;;3.95;100.00
76022;BME280;64718;52.124;6.226;2024-01-30T03:20:08;102611.03;;;3.99;100.00
76022;BME280;64718;52.124;6.226;2024-01-30T03:22:35;102605.84;;;3.96;100.00
76022;BME280;64718;52.124;6.226;2024-01-30T03:25:02;102604.94;;;3.94;100.00
76022;BME280;64718;52.124;6.226;2024-01-30T03:27:29;102607.59;;;4.00;100.00
76022;BME280;64718;52.124;6.226;2024-01-30T03:29:56;102603.28;;;3.98;100.00
76022;BME280;64718;52.124;6.226;2024-01-30T03:32:23;102612.63;;;3.91;100.00
76022;BME280;64718;52.124;6.226;2024-01-30T03:34:49;102604.00;;;3.88;100.00
76022;BME280;64718;52.124;6.226;2024-01-30T03:37:16;102600.66;;;3.93;100.00
76022;BME280;64718;52.124;6.226;2024-01-30T03:39:42;102602.19;;;3.79;100.00
76022;BME280;64718;52.124;6.226;2024-01-30T03:42:09;102598.66;;;3.72;100.00
76022;BME280;64718;52.124;6.226;2024-01-30T03:44:35;102595.25;;;3.73;100.00
76022;BME280;64718;52.124;6.226;2024-01-30T03:47:03;102601.41;;;3.86;100.00
76022;BME280;64718;52.124;6.226;2024-01-30T03:49:30;102600.38;;;3.73;100.00
76022;BME280;64718;52.124;6.226;2024-01-30T03:51:56;102599.53;;;3.73;100.00
76022;BME280;64718;52.124;6.226;2024-01-30T03:54:23;102596.06;;;3.71;100.00
76022;BME280;64718;52.124;6.226;2024-01-30T03:56:49;102590.97;;;3.75;100.00
76022;BME280;64718;52.124;6.226;2024-01-30T03:59:16;102589.13;;;3.65;100.00
76022;BME280;64718;52.124;6.226;2024-01-30T04:01:47;102582.44;;;3.78;100.00
76022;BME280;64718;52.124;6.226;2024-01-30T04:04:15;102582.47;;;3.81;100.00
76022;BME280;64718;52.124;6.226;2024-01-30T04:06:42;102583.34;;;3.83;100.00
76022;BME280;64718;52.124;6.226;2024-01-30T04:09:08;102577.44;;;3.89;100.00
76022;BME280;64718;52.124;6.226;2024-01-30T04:11:35;102581.75;;;3.91;100.00
76022;BME280;64718;52.124;6.226;2024-01-30T04:14:01;102575.16;;;4.11;100.00
76022;BME280;64718;52.124;6.226;2024-01-30T04:16:28;102581.22;;;4.15;100.00
76022;BME280;64718;52.124;6.226;2024-01-30T04:18:55;102576.34;;;4.39;100.00
76022;BME280;64718;52.124;6.226;2024-01-30T04:21:23;102578.94;;;4.41;100.00
76022;BME280;64718;52.124;6.226;2024-01-30T04:23:50;102572.16;;;4.51;100.00
76022;BME280;64718;52.124;6.226;2024-01-30T04:26:17;102572.91;;;4.40;100.00
76022;BME280;64718;52.124;6.226;2024-01-30T04:28:44;102565.97;;;4.35;100.00
76022;BME280;64718;52.124;6.226;2024-01-30T04:31:11;102564.31;;;4.40;100.00
76022;BME280;64718;52.124;6.226;2024-01-30T04:33:37;102570.28;;;4.34;100.00
76022;BME280;64718;52.124;6.226;2024-01-30T04:36:07;102575.31;;;4.24;100.00
76022;BME280;64718;52.124;6.226;2024-01-30T04:38:35;102583.84;;;4.20;100.00
76022;BME280;64718;52.124;6.226;2024-01-30T04:41:02;102579.53;;;4.19;100.00
76022;BME280;64718;52.124;6.226;2024-01-30T04:43:29;102583.03;;;4.24;100.00
76022;BME280;64718;52.124;6.226;2024-01-30T04:45:56;102577.91;;;4.25;100.00
76022;BME280;64718;52.124;6.226;2024-01-30T04:48:22;102577.84;;;4.21;100.00
76022;BME280;64718;52.124;6.226;2024-01-30T04:50:49;102576.16;;;4.24;100.00
76022;BME280;64718;52.124;6.226;2024-01-30T04:53:15;102573.56;;;4.21;100.00
76022;BME280;64718;52.124;6.226;2024-01-30T04:55:43;102578.84;;;4.33;100.00
76022;BME280;64718;52.124;6.226;2024-01-30T04:58:09;102572.69;;;4.21;100.00
76022;BME280;64718;52.124;6.226;2024-01-30T05:00:36;102579.63;;;4.26;100.00
76022;BME280;64718;52.124;6.226;2024-01-30T05:03:02;102582.97;;;4.18;100.00
76022;BME280;64718;52.124;6.226;2024-01-30T05:05:29;102575.28;;;4.22;100.00
76022;BME280;64718;52.124;6.226;2024-01-30T05:07:55;102578.75;;;4.24;100.00
76022;BME280;64718;52.124;6.226;2024-01-30T05:10:22;102565.94;;;4.30;100.00
76022;BME280;64718;52.124;6.226;2024-01-30T05:12:50;102571.19;;;4.41;100.00
76022;BME280;64718;52.124;6.226;2024-01-30T05:15:16;102563.50;;;4.45;100.00
76022;BME280;64718;52.124;6.226;2024-01-30T05:17:43;102563.44;;;4.38;100.00
76022;BME280;64718;52.124;6.226;2024-01-30T05:20:10;102559.09;;;4.32;100.00
76022;BME280;64718;52.124;6.226;2024-01-30T05:22:37;102561.66;;;4.31;100.00
76022;BME280;64718;52.124;6.226;2024-01-30T05:25:10;102557.53;;;4.50;100.00
76022;BME280;64718;52.124;6.226;2024-01-30T05:27:36;102559.44;;;4.63;100.00
76022;BME280;64718;52.124;6.226;2024-01-30T05:30:05;102558.56;;;4.64;100.00
76022;BME280;64718;52.124;6.226;2024-01-30T05:32:32;102560.34;;;4.69;100.00
76022;BME280;64718;52.124;6.226;2024-01-30T05:34:59;102565.50;;;4.69;100.00
76022;BME280;64718;52.124;6.226;2024-01-30T05:37:25;102562.13;;;4.75;100.00
76022;BME280;64718;52.124;6.226;2024-01-30T05:39:52;102555.28;;;4.79;100.00
76022;BME280;64718;52.124;6.226;2024-01-30T05:42:18;102546.69;;;4.81;100.00
76022;BME280;64718;52.124;6.226;2024-01-30T05:44:44;102557.88;;;4.80;100.00
76022;BME280;64718;52.124;6.226;2024-01-30T05:47:12;102551.81;;;4.76;100.00
76022;BME280;64718;52.124;6.226;2024-01-30T05:49:39;102549.34;;;4.89;100.00
76022;BME280;64718;52.124;6.226;2024-01-30T05:52:05;102568.25;;;4.88;100.00
76022;BME280;64718;52.124;6.226;2024-01-30T05:54:32;102570.84;;;4.91;100.00
76022;BME280;64718;52.124;6.226;2024-01-30T05:56:59;102565.72;;;4.95;100.00
76022;BME280;64718;52.124;6.226;2024-01-30T05:59:25;102558.94;;;5.06;100.00
76022;BME280;64718;52.124;6.226;2024-01-30T06:01:52;102568.56;;;5.24;100.00
76022;BME280;64718;52.124;6.226;2024-01-30T06:04:20;102566.06;;;5.35;100.00
76022;BME280;64718;52.124;6.226;2024-01-30T06:06:46;102555.78;;;5.44;100.00
76022;BME280;64718;52.124;6.226;2024-01-30T06:09:13;102561.00;;;5.52;100.00
76022;BME280;64718;52.124;6.226;2024-01-30T06:11:40;102548.09;;;5.55;100.00
76022;BME280;64718;52.124;6.226;2024-01-30T06:14:06;102536.94;;;5.57;100.00
76022;BME280;64718;52.124;6.226;2024-01-30T06:16:33;102538.69;;;5.64;100.00
76022;BME280;64718;52.124;6.226;2024-01-30T06:18:59;102543.06;;;5.78;100.00
76022;BME280;64718;52.124;6.226;2024-01-30T06:21:27;102545.69;;;5.79;100.00
76022;BME280;64718;52.124;6.226;2024-01-30T06:23:54;102547.50;;;5.95;100.00
76022;BME280;64718;52.124;6.226;2024-01-30T06:26:20;102544.97;;;6.08;100.00
76022;BME280;64718;52.124;6.226;2024-01-30T06:28:46;102547.56;;;6.18;100.00
76022;BME280;64718;52.124;6.226;2024-01-30T06:31:13;102543.28;;;6.29;100.00
76022;BME280;64718;52.124;6.226;2024-01-30T06:33:40;102545.88;;;6.35;100.00
76022;BME280;64718;52.124;6.226;2024-01-30T06:36:07;102548.53;;;6.48;100.00
76022;BME280;64718;52.124;6.226;2024-01-30T06:38:35;102548.53;;;6.58;100.00
76022;BME280;64718;52.124;6.226;2024-01-30T06:41:02;102544.22;;;6.56;100.00
76022;BME280;64718;52.124;6.226;2024-01-30T06:43:28;102541.66;;;6.56;100.00
76022;BME280;64718;52.124;6.226;2024-01-30T06:45:55;102535.63;;;6.66;100.00
76022;BME280;64718;52.124;6.226;2024-01-30T06:48:21;102534.78;;;6.73;100.00
76022;BME280;64718;52.124;6.226;2024-01-30T06:50:48;102538.22;;;6.71;100.00
76022;BME280;64718;52.124;6.226;2024-01-30T06:53:16;102548.56;;;6.69;100.00
76022;BME280;64718;52.124;6.226;2024-01-30T06:55:43;102557.16;;;6.66;100.00
76022;BME280;64718;52.124;6.226;2024-01-30T06:58:10;102551.13;;;6.61;100.00
76022;BME280;64718;52.124;6.226;2024-01-30T07:00:37;102560.63;;;6.70;100.00
76022;BME280;64718;52.124;6.226;2024-01-30T07:03:04;102553.72;;;6.71;100.00
76022;BME280;64718;52.124;6.226;2024-01-30T07:05:31;102562.34;;;6.70;100.00
76022;BME280;64718;52.124;6.226;2024-01-30T07:07:58;102549.41;;;6.70;100.00
76022;BME280;64718;52.124;6.226;2024-01-30T07:10:24;102547.69;;;6.72;100.00
76022;BME280;64718;52.124;6.226;2024-01-30T07:12:52;102546.84;;;6.82;100.00
76022;BME280;64718;52.124;6.226;2024-01-30T07:15:19;102546.84;;;6.83;100.00
76022;BME280;64718;52.124;6.226;2024-01-30T07:17:45;102541.66;;;6.85;100.00
76022;BME280;64718;52.124;6.226;2024-01-30T07:20:12;102551.19;;;6.95;100.00
76022;BME280;64718;52.124;6.226;2024-01-30T07:22:39;102543.38;;;6.92;100.00
76022;BME280;64718;52.124;6.226;2024-01-30T07:25:07;102552.91;;;6.94;100.00
76022;BME280;64718;52.124;6.226;2024-01-30T07:27:33;102552.03;;;6.94;100.00
76022;BME280;64718;52.124;6.226;2024-01-30T07:30:01;102555.50;;;7.02;100.00
76022;BME280;64718;52.124;6.226;2024-01-30T07:32:28;102558.06;;;6.94;100.00
76022;BME280;64718;52.124;6.226;2024-01-30T07:34:54;102558.03;;;6.91;100.00
76022;BME280;64718;52.124;6.226;2024-01-30T07:37:21;102568.41;;;6.94;100.00
76022;BME280;64718;52.124;6.226;2024-01-30T07:39:47;102562.38;;;6.95;100.00
76022;BME280;64718;52.124;6.226;2024-01-30T07:42:14;102556.34;;;6.98;100.00
76022;BME280;64718;52.124;6.226;2024-01-30T07:44:40;102557.22;;;6.97;100.00
76022;BME280;64718;52.124;6.226;2024-01-30T07:47:08;102558.06;;;7.05;100.00
76022;BME280;64718;52.124;6.226;2024-01-30T07:49:34;102568.41;;;7.05;100.00
76022;BME280;64718;52.124;6.226;2024-01-30T07:52:01;102578.78;;;7.08;100.00
76022;BME280;64718;52.124;6.226;2024-01-30T07:54:31;102581.34;;;7.13;100.00
76022;BME280;64718;52.124;6.226;2024-01-30T07:57:00;102579.63;;;7.09;100.00
76022;BME280;64718;52.124;6.226;2024-01-30T07:59:27;102589.13;;;7.17;100.00
76022;BME280;64718;52.124;6.226;2024-01-30T08:02:03;102576.16;;;7.31;100.00
76022;BME280;64718;52.124;6.226;2024-01-30T08:04:31;102581.34;;;7.31;100.00
76022;BME280;64718;52.124;6.226;2024-01-30T08:06:57;102579.59;;;7.38;100.00
76022;BME280;64718;52.124;6.226;2024-01-30T08:09:24;102577.00;;;7.47;100.00
76022;BME280;64718;52.124;6.226;2024-01-30T08:11:50;102579.56;;;7.51;100.00
76022;BME280;64718;52.124;6.226;2024-01-30T08:14:17;102575.28;;;7.56;100.00
76022;BME280;64718;52.124;6.226;2024-01-30T08:16:43;102585.63;;;7.58;100.00
76022;BME280;64718;52.124;6.226;2024-01-30T08:19:10;102585.59;;;7.67;100.00
76022;BME280;64718;52.124;6.226;2024-01-30T08:21:38;102598.56;;;7.69;100.00
76022;BME280;64718;52.124;6.226;2024-01-30T08:24:06;102603.72;;;7.72;100.00
76022;BME280;64718;52.124;6.226;2024-01-30T08:26:33;102599.38;;;7.80;100.00
76022;BME280;64718;52.124;6.226;2024-01-30T08:29:00;102601.09;;;7.88;100.00
76022;BME280;64718;52.124;6.226;2024-01-30T08:31:27;102589.81;;;7.99;100.00
76022;BME280;64718;52.124;6.226;2024-01-30T08:33:54;102589.84;;;7.94;100.00
76022;BME280;64718;52.124;6.226;2024-01-30T08:36:20;102588.94;;;8.06;100.00
76022;BME280;64718;52.124;6.226;2024-01-30T08:38:48;102591.50;;;8.16;100.00
76022;BME280;64718;52.124;6.226;2024-01-30T08:41:15;102582.00;;;8.18;100.00
76022;BME280;64718;52.124;6.226;2024-01-30T08:43:42;102583.72;;;8.21;100.00
76022;BME280;64718;52.124;6.226;2024-01-30T08:46:10;102588.91;;;8.18;100.00
76022;BME280;64718;52.124;6.226;2024-01-30T08:48:36;102587.13;;;8.26;100.00
76022;BME280;64718;52.124;6.226;2024-01-30T08:51:03;102588.81;;;8.41;100.00
76022;BME280;64718;52.124;6.226;2024-01-30T08:53:33;102593.94;;;8.53;100.00
76022;BME280;64718;52.124;6.226;2024-01-30T08:56:01;102589.53;;;8.64;100.00
76022;BME280;64718;52.124;6.226;2024-01-30T08:58:28;102585.16;;;8.75;100.00
76022;BME280;64718;52.124;6.226;2024-01-30T09:00:54;102583.38;;;8.83;100.00
76022;BME280;64718;52.124;6.226;2024-01-30T09:03:21;102579.84;;;8.94;100.00
76022;BME280;64718;52.124;6.226;2024-01-30T09:05:47;102579.84;;;8.92;100.00
76022;BME280;64718;52.124;6.226;2024-01-30T09:08:14;102581.53;;;8.98;100.00
76022;BME280;64718;52.124;6.226;2024-01-30T09:10:40;102584.94;;;9.04;100.00
76022;BME280;64718;52.124;6.226;2024-01-30T09:13:08;102585.81;;;9.05;100.00
76022;BME280;64718;52.124;6.226;2024-01-30T09:15:35;102591.81;;;9.10;100.00
76022;BME280;64718;52.124;6.226;2024-01-30T09:18:01;102584.84;;;9.16;100.00
76022;BME280;64718;52.124;6.226;2024-01-30T09:20:28;102580.50;;;9.18;100.00
76022;BME280;64718;52.124;6.226;2024-01-30T09:22:54;102584.81;;;9.18;100.00
76022;BME280;64718;52.124;6.226;2024-01-30T09:25:21;102585.63;;;9.25;100.00
76022;BME280;64718;52.124;6.226;2024-01-30T09:27:47;102591.72;;;9.20;100.00
76022;BME280;64718;52.124;6.226;2024-01-30T09:30:16;102596.03;;;9.26;100.00
76022;BME280;64718;52.124;6.226;2024-01-30T09:32:43;102595.16;;;9.29;100.00
76022;BME280;64718;52.124;6.226;2024-01-30T09:35:09;102593.41;;;9.31;100.00
76022;BME280;64718;52.124;6.226;2024-01-30T09:37:36;102590.81;;;9.29;100.00
76022;BME280;64718;52.124;6.226;2024-01-30T09:40:03;102599.47;;;9.28;100.00
76022;BME280;64718;52.124;6.226;2024-01-30T09:42:34;102601.22;;;9.28;100.00
76022;BME280;64718;52.124;6.226;2024-01-30T09:45:02;102596.00;;;9.25;100.00
76022;BME280;64718;52.124;6.226;2024-01-30T09:47:32;102595.13;;;9.30;100.00
76022;BME280;64718;52.124;6.226;2024-01-30T09:49:59;102593.34;;;9.35;100.00
76022;BME280;64718;52.124;6.226;2024-01-30T09:52:28;102582.94;;;9.37;100.00
76022;BME280;64718;52.124;6.226;2024-01-30T09:54:54;102587.22;;;9.41;100.00
76022;BME280;64718;52.124;6.226;2024-01-30T09:57:21;102595.81;;;9.47;100.00
76022;BME280;64718;52.124;6.226;2024-01-30T09:59:48;102596.59;;;9.57;100.00
76022;BME280;64718;52.124;6.226;2024-01-30T10:02:17;102599.94;;;9.68;100.00
76022;BME280;64718;52.124;6.226;2024-01-30T10:04:47;102601.63;;;9.72;100.00
76022;BME280;64718;52.124;6.226;2024-01-30T10:07:14;102599.84;;;9.76;100.00
76022;BME280;64718;52.124;6.226;2024-01-30T10:09:41;102586.75;;;9.88;100.00
76022;BME280;64718;52.124;6.226;2024-01-30T10:12:08;102590.97;;;9.97;100.00
76022;BME280;64718;52.124;6.226;2024-01-30T10:14:38;102595.25;;;10.01;100.00
76022;BME280;64718;52.124;6.226;2024-01-30T10:17:04;102597.72;;;10.13;100.00
76022;BME280;64718;52.124;6.226;2024-01-30T10:19:31;102591.59;;;10.17;100.00
76022;BME280;64718;52.124;6.226;2024-01-30T10:22:01;102597.72;;;10.13;100.00
76022;BME280;64718;52.124;6.226;2024-01-30T10:24:27;102604.56;;;10.19;100.00
76022;BME280;64718;52.124;6.226;2024-01-30T10:26:54;102612.38;;;10.17;100.00
76022;BME280;64718;52.124;6.226;2024-01-30T10:29:21;102611.47;;;10.23;100.00
76022;BME280;64718;52.124;6.226;2024-01-30T10:31:57;102607.09;;;10.28;100.00
76022;BME280;64718;52.124;6.226;2024-01-30T10:34:24;102604.41;;;10.32;100.00
76022;BME280;64718;52.124;6.226;2024-01-30T10:36:59;102609.59;;;10.34;100.00
76022;BME280;64718;52.124;6.226;2024-01-30T10:39:29;102618.25;;;10.36;100.00
76022;BME280;64718;52.124;6.226;2024-01-30T10:41:56;102607.81;;;10.37;100.00
76022;BME280;64718;52.124;6.226;2024-01-30T10:44:26;102612.03;;;10.49;100.00
76022;BME280;64718;52.124;6.226;2024-01-30T10:47:00;102611.13;;;10.52;100.00
76022;BME280;64718;52.124;6.226;2024-01-30T10:49:29;102615.59;;;10.42;100.00
76022;BME280;64718;52.124;6.226;2024-01-30T10:51:57;102618.22;;;10.40;100.00
76022;BME280;64718;52.124;6.226;2024-01-30T10:54:25;102611.28;;;10.41;100.00
76022;BME280;64718;52.124;6.226;2024-01-30T10:56:54;102607.00;;;10.34;100.00
76022;BME280;64718;52.124;6.226;2024-01-30T10:59:23;102611.25;;;10.39;100.00
76022;BME280;64718;52.124;6.226;2024-01-30T11:01:50;102609.59;;;10.35;100.00
76022;BME280;64718;52.124;6.226;2024-01-30T11:04:17;102603.44;;;10.44;100.00
76022;BME280;64718;52.124;6.226;2024-01-30T11:06:44;102608.63;;;10.44;100.00
76022;BME280;64718;52.124;6.226;2024-01-30T11:09:11;102605.91;;;10.53;100.00
76022;BME280;64718;52.124;6.226;2024-01-30T11:11:50;102605.91;;;10.53;100.00
76022;BME280;64718;52.124;6.226;2024-01-30T11:14:23;102599.59;;;10.69;100.00
76022;BME280;64718;52.124;6.226;2024-01-30T11:16:51;102608.19;;;10.74;100.00
76022;BME280;64718;52.124;6.226;2024-01-30T11:19:22;102614.19;;;10.80;100.00
76022;BME280;64718;52.124;6.226;2024-01-30T11:21:50;102608.97;;;10.80;100.00
76022;BME280;64718;52.124;6.226;2024-01-30T11:24:19;102614.22;;;10.76;100.00
76022;BME280;64718;52.124;6.226;2024-01-30T11:26:48;102612.44;;;10.80;100.00
76022;BME280;64718;52.124;6.226;2024-01-30T11:29:15;102614.97;;;10.85;100.00
76022;BME280;64718;52.124;6.226;2024-01-30T11:31:52;102625.16;;;11.01;100.00
76022;BME280;64718;52.124;6.226;2024-01-30T11:34:20;102613.03;;;11.00;100.00
76022;BME280;64718;52.124;6.226;2024-01-30T11:36:53;102613.88;;;11.01;100.00
76022;BME280;64718;52.124;6.226;2024-01-30T11:39:24;102610.63;;;10.85;100.00
76022;BME280;64718;52.124;6.226;2024-01-30T11:41:52;102600.25;;;10.82;100.00
76022;BME280;64718;52.124;6.226;2024-01-30T11:44:18;102611.66;;;10.75;100.00
76022;BME280;64718;52.124;6.226;2024-01-30T11:46:46;102599.44;;;10.78;100.00
76022;BME280;64718;52.124;6.226;2024-01-30T11:49:14;102607.16;;;10.85;100.00
76022;BME280;64718;52.124;6.226;2024-01-30T11:51:41;102609.84;;;10.78;100.00
76022;BME280;64718;52.124;6.226;2024-01-30T11:54:08;102607.22;;;10.82;100.00
76022;BME280;64718;52.124;6.226;2024-01-30T11:56:36;102601.09;;;10.84;100.00
76022;BME280;64718;52.124;6.226;2024-01-30T11:59:03;102608.13;;;10.77;100.00
76022;BME280;64718;52.124;6.226;2024-01-30T12:01:30;102611.66;;;10.73;100.00
76022;BME280;64718;52.124;6.226;2024-01-30T12:03:57;102605.66;;;10.70;100.00
76022;BME280;64718;52.124;6.226;2024-01-30T12:06:25;102604.69;;;10.77;100.00
76022;BME280;64718;52.124;6.226;2024-01-30T12:08:57;102599.50;;;10.75;100.00
76022;BME280;64718;52.124;6.226;2024-01-30T12:11:24;102599.13;;;11.01;100.00
76022;BME280;64718;52.124;6.226;2024-01-30T12:13:51;102603.94;;;11.24;100.00
76022;BME280;64718;52.124;6.226;2024-01-30T12:16:18;102591.63;;;11.32;100.00
76022;BME280;64718;52.124;6.226;2024-01-30T12:18:44;102593.06;;;11.49;100.00
76022;BME280;64718;52.124;6.226;2024-01-30T12:21:11;102590.31;;;11.59;100.00
76022;BME280;64718;52.124;6.226;2024-01-30T12:23:39;102579.88;;;11.59;100.00
76022;BME280;64718;52.124;6.226;2024-01-30T12:26:06;102576.25;;;11.68;100.00
76022;BME280;64718;52.124;6.226;2024-01-30T12:28:32;102573.31;;;11.85;100.00
76022;BME280;64718;52.124;6.226;2024-01-30T12:31:01;102570.31;;;12.04;100.00
76022;BME280;64718;52.124;6.226;2024-01-30T12:33:28;102579.47;;;12.25;100.00
76022;BME280;64718;52.124;6.226;2024-01-30T12:35:55;102573.81;;;12.44;100.00
76022;BME280;64718;52.124;6.226;2024-01-30T12:38:22;102576.56;;;12.76;100.00
76022;BME280;64718;52.124;6.226;2024-01-30T12:40:54;102566.91;;;12.80;100.00
76022;BME280;64718;52.124;6.226;2024-01-30T12:43:21;102587.06;;;12.75;100.00
76022;BME280;64718;52.124;6.226;2024-01-30T12:45:47;102571.31;;;12.39;100.00
76022;BME280;64718;52.124;6.226;2024-01-30T12:48:14;102584.84;;;12.18;100.00